sensor_id;sensor_type;location;lat;lon;timestamp;pressure;altitude;pressure_sealevel;temperature;humidity
57574;BME280;43409;48.858;21.906;2022-09-09T00:02:18;98197.72;;;24.29;55.73
57574;BME280;43409;48.858;21.906;2022-09-09T00:04:58;98205.75;;;24.29;55.73
57574;BME280;43409;48.858;21.906;2022-09-09T00:12:33;98210.03;;;24.30;55.83
57574;BME280;43409;48.858;21.906;2022-09-09T00:15:02;98214.34;;;24.31;55.77
57574;BME280;43409;48.858;21.906;2022-09-09T00:17:47;98214.84;;;24.34;55.59
57574;BME280;43409;48.858;21.906;2022-09-09T00:20:22;98221.81;;;24.35;55.73
57574;BME280;43409;48.858;21.906;2022-09-09T00:26:14;98225.56;;;24.34;55.39
57574;BME280;43409;48.858;21.906;2022-09-09T00:31:32;98230.13;;;24.33;55.40
57574;BME280;43409;48.858;21.906;2022-09-09T00:34:02;98234.44;;;24.29;55.33
57574;BME280;43409;48.858;21.906;2022-09-09T00:36:30;98249.16;;;24.31;55.51
57574;BME280;43409;48.858;21.906;2022-09-09T00:39:00;98244.59;;;24.32;55.65
57574;BME280;43409;48.858;21.906;2022-09-09T00:47:06;98252.34;;;24.34;55.32
57574;BME280;43409;48.858;21.906;2022-09-09T00:50:09;98248.88;;;24.33;55.33
57574;BME280;43409;48.858;21.906;2022-09-09T00:55:16;98246.22;;;24.33;55.14
57574;BME280;43409;48.858;21.906;2022-09-09T00:57:51;98249.16;;;24.31;55.14
57574;BME280;43409;48.858;21.906;2022-09-09T01:00:29;98257.47;;;24.30;55.14
57574;BME280;43409;48.858;21.906;2022-09-09T01:05:39;98267.66;;;24.28;55.34
57574;BME280;43409;48.858;21.906;2022-09-09T01:10:51;98272.50;;;24.26;55.37
57574;BME280;43409;48.858;21.906;2022-09-09T01:13:29;98267.66;;;24.28;55.68
57574;BME280;43409;48.858;21.906;2022-09-09T01:15:58;98260.44;;;24.23;56.02
57574;BME280;43409;48.858;21.906;2022-09-09T01:18:28;98261.56;;;24.22;55.68
57574;BME280;43409;48.858;21.906;2022-09-09T01:26:22;98251.06;;;24.26;55.82
57574;BME280;43409;48.858;21.906;2022-09-09T01:28:51;98261.50;;;24.27;55.63
57574;BME280;43409;48.858;21.906;2022-09-09T01:31:53;98264.19;;;24.27;55.68
57574;BME280;43409;48.858;21.906;2022-09-09T01:34:20;98266.06;;;24.27;55.43
57574;BME280;43409;48.858;21.906;2022-09-09T01:36:52;98262.31;;;24.28;55.53
57574;BME280;43409;48.858;21.906;2022-09-09T01:39:19;98269.78;;;24.31;55.61
57574;BME280;43409;48.858;21.906;2022-09-09T01:41:45;98262.03;;;24.29;55.52
57574;BME280;43409;48.858;21.906;2022-09-09T01:44:10;98271.44;;;24.27;55.64
57574;BME280;43409;48.858;21.906;2022-09-09T01:46:36;98268.75;;;24.27;55.80
57574;BME280;43409;48.858;21.906;2022-09-09T01:49:04;98271.44;;;24.27;55.51
57574;BME280;43409;48.858;21.906;2022-09-09T01:51:31;98269.81;;;24.26;55.59
57574;BME280;43409;48.858;21.906;2022-09-09T01:53:56;98281.06;;;24.28;55.93
57574;BME280;43409;48.858;21.906;2022-09-09T02:07:01;98288.31;;;24.27;55.69
57574;BME280;43409;48.858;21.906;2022-09-09T02:09:29;98287.50;;;24.27;55.58
57574;BME280;43409;48.858;21.906;2022-09-09T02:12:21;98286.97;;;24.25;55.72
57574;BME280;43409;48.858;21.906;2022-09-09T02:14:56;98288.59;;;24.26;56.00
57574;BME280;43409;48.858;21.906;2022-09-09T02:17:28;98286.97;;;24.25;56.02
57574;BME280;43409;48.858;21.906;2022-09-09T02:20:08;98273.06;;;24.23;56.15
57574;BME280;43409;48.858;21.906;2022-09-09T02:22:38;98273.06;;;24.23;56.19
57574;BME280;43409;48.858;21.906;2022-09-09T02:25:08;98270.94;;;24.20;56.02
57574;BME280;43409;48.858;21.906;2022-09-09T02:27:35;98274.94;;;24.22;56.01
57574;BME280;43409;48.858;21.906;2022-09-09T02:30:01;98281.38;;;24.21;55.94
57574;BME280;43409;48.858;21.906;2022-09-09T02:32:31;98283.25;;;24.21;56.33
57574;BME280;43409;48.858;21.906;2022-09-09T02:35:05;98287.53;;;24.22;55.93
57574;BME280;43409;48.858;21.906;2022-09-09T02:37:37;98282.19;;;24.17;56.68
57574;BME280;43409;48.858;21.906;2022-09-09T02:40:08;98276.28;;;24.20;56.07
57574;BME280;43409;48.858;21.906;2022-09-09T02:42:41;98278.69;;;24.21;56.13
57574;BME280;43409;48.858;21.906;2022-09-09T02:45:09;98278.97;;;24.20;56.14
57574;BME280;43409;48.858;21.906;2022-09-09T02:47:39;98278.97;;;24.20;56.16
57574;BME280;43409;48.858;21.906;2022-09-09T02:50:17;98285.13;;;24.20;56.15
57574;BME280;43409;48.858;21.906;2022-09-09T02:57:51;98278.97;;;24.20;56.15
57574;BME280;43409;48.858;21.906;2022-09-09T03:00:22;98277.91;;;24.21;56.32
57574;BME280;43409;48.858;21.906;2022-09-09T03:02:49;98281.66;;;24.20;56.25
57574;BME280;43409;48.858;21.906;2022-09-09T03:05:16;98273.63;;;24.20;56.33
57574;BME280;43409;48.858;21.906;2022-09-09T03:07:42;98279.53;;;24.17;56.34
57574;BME280;43409;48.858;21.906;2022-09-09T03:10:07;98277.91;;;24.16;56.28
57574;BME280;43409;48.858;21.906;2022-09-09T03:12:33;98282.19;;;24.17;56.37
57574;BME280;43409;48.858;21.906;2022-09-09T03:14:58;98277.63;;;24.17;56.34
57574;BME280;43409;48.858;21.906;2022-09-09T03:17:24;98282.72;;;24.19;56.54
57574;BME280;43409;48.858;21.906;2022-09-09T03:19:49;98285.69;;;24.17;56.54
57574;BME280;43409;48.858;21.906;2022-09-09T03:22:17;98282.19;;;24.17;56.61
57574;BME280;43409;48.858;21.906;2022-09-09T03:24:42;98286.50;;;24.18;56.46
57574;BME280;43409;48.858;21.906;2022-09-09T03:27:08;98286.50;;;24.18;56.27
57574;BME280;43409;48.858;21.906;2022-09-09T03:29:33;98282.19;;;24.17;56.31
57574;BME280;43409;48.858;21.906;2022-09-09T03:31:59;98286.50;;;24.18;56.39
57574;BME280;43409;48.858;21.906;2022-09-09T03:34:24;98283.28;;;24.16;56.62
57574;BME280;43409;48.858;21.906;2022-09-09T03:36:50;98287.28;;;24.18;56.49
57574;BME280;43409;48.858;21.906;2022-09-09T03:39:15;98291.31;;;24.16;56.77
57574;BME280;43409;48.858;21.906;2022-09-09T03:41:41;98294.00;;;24.16;56.90
57574;BME280;43409;48.858;21.906;2022-09-09T03:44:06;98287.84;;;24.15;56.76
57574;BME280;43409;48.858;21.906;2022-09-09T03:46:31;98287.06;;;24.15;56.59
57574;BME280;43409;48.858;21.906;2022-09-09T03:48:57;98289.44;;;24.16;56.76
57574;BME280;43409;48.858;21.906;2022-09-09T03:51:23;98287.31;;;24.13;56.69
57574;BME280;43409;48.858;21.906;2022-09-09T03:53:48;98300.44;;;24.15;56.65
57574;BME280;43409;48.858;21.906;2022-09-09T03:56:14;98293.75;;;24.12;56.90
57574;BME280;43409;48.858;21.906;2022-09-09T03:58:39;98297.22;;;24.18;56.42
57574;BME280;43409;48.858;21.906;2022-09-09T04:01:10;98303.63;;;24.17;56.47
57574;BME280;43409;48.858;21.906;2022-09-09T04:03:39;98302.56;;;24.18;56.45
57574;BME280;43409;48.858;21.906;2022-09-09T04:06:07;98300.41;;;24.20;56.54
57574;BME280;43409;48.858;21.906;2022-09-09T04:08:34;98307.94;;;24.18;56.61
57574;BME280;43409;48.858;21.906;2022-09-09T04:11:01;98313.28;;;24.18;56.62
57574;BME280;43409;48.858;21.906;2022-09-09T04:13:32;98306.81;;;24.19;56.34
57574;BME280;43409;48.858;21.906;2022-09-09T04:15:59;98302.56;;;24.18;56.48
57574;BME280;43409;48.858;21.906;2022-09-09T04:18:26;98310.84;;;24.21;56.21
57574;BME280;43409;48.858;21.906;2022-09-09T04:20:52;98304.69;;;24.21;56.25
57574;BME280;43409;48.858;21.906;2022-09-09T04:23:18;98308.44;;;24.20;56.66
57574;BME280;43409;48.858;21.906;2022-09-09T04:25:49;98312.72;;;24.21;56.63
57574;BME280;43409;48.858;21.906;2022-09-09T04:28:16;98307.66;;;24.19;56.71
57574;BME280;43409;48.858;21.906;2022-09-09T04:30:43;98311.13;;;24.20;56.21
57574;BME280;43409;48.858;21.906;2022-09-09T04:33:09;98318.09;;;24.21;56.47
57574;BME280;43409;48.858;21.906;2022-09-09T04:35:35;98317.00;;;24.22;56.34
57574;BME280;43409;48.858;21.906;2022-09-09T04:38:01;98315.13;;;24.22;56.20
57574;BME280;43409;48.858;21.906;2022-09-09T04:40:28;98319.66;;;24.22;56.49
57574;BME280;43409;48.858;21.906;2022-09-09T04:42:55;98323.16;;;24.22;56.26
57574;BME280;43409;48.858;21.906;2022-09-09T04:45:20;98318.59;;;24.23;56.15
57574;BME280;43409;48.858;21.906;2022-09-09T04:47:45;98322.63;;;24.20;56.58
57574;BME280;43409;48.858;21.906;2022-09-09T04:50:11;98318.09;;;24.21;56.14
57574;BME280;43409;48.858;21.906;2022-09-09T04:52:37;98323.44;;;24.21;56.53
57574;BME280;43409;48.858;21.906;2022-09-09T04:55:03;98324.00;;;24.18;56.89
57574;BME280;43409;48.858;21.906;2022-09-09T04:57:28;98323.19;;;24.17;56.21
57574;BME280;43409;48.858;21.906;2022-09-09T04:59:54;98331.22;;;24.22;55.72
57574;BME280;43409;48.858;21.906;2022-09-09T05:02:19;98330.38;;;24.22;55.69
57574;BME280;43409;48.858;21.906;2022-09-09T05:04:45;98330.38;;;24.22;56.11
57574;BME280;43409;48.858;21.906;2022-09-09T05:07:10;98335.75;;;24.22;56.07
57574;BME280;43409;48.858;21.906;2022-09-09T05:09:35;98344.88;;;24.21;56.20
57574;BME280;43409;48.858;21.906;2022-09-09T05:12:01;98346.47;;;24.22;56.72
57574;BME280;43409;48.858;21.906;2022-09-09T05:14:27;98350.16;;;24.31;56.71
57574;BME280;43409;48.858;21.906;2022-09-09T05:16:53;98356.81;;;24.39;56.21
57574;BME280;43409;48.858;21.906;2022-09-09T05:19:18;98348.22;;;24.47;56.80
57574;BME280;43409;48.858;21.906;2022-09-09T05:21:45;98353.03;;;24.50;56.46
57574;BME280;43409;48.858;21.906;2022-09-09T05:24:10;98351.66;;;24.53;57.56
57574;BME280;43409;48.858;21.906;2022-09-09T05:26:36;98355.44;;;24.46;58.65
57574;BME280;43409;48.858;21.906;2022-09-09T05:29:01;98344.75;;;24.41;59.02
57574;BME280;43409;48.858;21.906;2022-09-09T05:31:29;98356.00;;;24.43;59.73
57574;BME280;43409;48.858;21.906;2022-09-09T05:33:55;98343.16;;;24.40;60.46
57574;BME280;43409;48.858;21.906;2022-09-09T05:36:22;98348.59;;;24.30;61.10
57574;BME280;43409;48.858;21.906;2022-09-09T05:38:48;98352.84;;;24.31;61.10
57574;BME280;43409;48.858;21.906;2022-09-09T05:41:16;98347.22;;;24.33;60.83
57574;BME280;43409;48.858;21.906;2022-09-09T05:43:43;98352.84;;;24.31;60.67
57574;BME280;43409;48.858;21.906;2022-09-09T05:46:18;98357.44;;;24.25;61.33
57574;BME280;43409;48.858;21.906;2022-09-09T05:48:45;98355.03;;;24.24;61.67
57574;BME280;43409;48.858;21.906;2022-09-09T05:51:13;98363.63;;;24.21;62.29
57574;BME280;43409;48.858;21.906;2022-09-09T05:53:41;98360.34;;;24.34;62.82
57574;BME280;43409;48.858;21.906;2022-09-09T05:56:09;98352.22;;;24.49;60.92
57574;BME280;43409;48.858;21.906;2022-09-09T05:58:36;98359.41;;;24.54;62.13
57574;BME280;43409;48.858;21.906;2022-09-09T06:01:03;98362.94;;;24.49;62.97
57574;BME280;43409;48.858;21.906;2022-09-09T06:03:28;98353.31;;;24.48;61.99
57574;BME280;43409;48.858;21.906;2022-09-09T06:06:01;98354.41;;;24.42;63.33
57574;BME280;43409;48.858;21.906;2022-09-09T06:08:27;98355.47;;;24.41;62.58
57574;BME280;43409;48.858;21.906;2022-09-09T06:10:52;98360.84;;;24.41;62.80
57574;BME280;43409;48.858;21.906;2022-09-09T06:13:18;98356.28;;;24.42;62.47
57574;BME280;43409;48.858;21.906;2022-09-09T06:15:51;98371.00;;;24.44;62.40
57574;BME280;43409;48.858;21.906;2022-09-09T06:18:17;98371.28;;;24.43;62.76
57574;BME280;43409;48.858;21.906;2022-09-09T06:20:56;98380.38;;;24.47;62.58
57574;BME280;43409;48.858;21.906;2022-09-09T06:23:22;98379.00;;;24.49;63.83
57574;BME280;43409;48.858;21.906;2022-09-09T06:25:47;98373.09;;;24.53;63.59
57574;BME280;43409;48.858;21.906;2022-09-09T06:28:14;98373.09;;;24.53;63.15
57574;BME280;43409;48.858;21.906;2022-09-09T06:30:40;98376.88;;;24.46;63.76
57574;BME280;43409;48.858;21.906;2022-09-09T06:33:06;98374.19;;;24.46;63.75
57574;BME280;43409;48.858;21.906;2022-09-09T06:35:32;98385.47;;;24.43;63.74
57574;BME280;43409;48.858;21.906;2022-09-09T06:37:57;98387.09;;;24.44;63.73
57574;BME280;43409;48.858;21.906;2022-09-09T06:40:24;98387.63;;;24.41;62.95
57574;BME280;43409;48.858;21.906;2022-09-09T06:42:49;98397.81;;;24.44;62.51
57574;BME280;43409;48.858;21.906;2022-09-09T06:45:15;98398.88;;;24.43;62.00
57574;BME280;43409;48.858;21.906;2022-09-09T06:47:40;98397.84;;;24.39;62.25
57574;BME280;43409;48.858;21.906;2022-09-09T06:50:06;98397.84;;;24.39;62.24
57574;BME280;43409;48.858;21.906;2022-09-09T06:52:32;98400.53;;;24.39;62.64
57574;BME280;43409;48.858;21.906;2022-09-09T06:54:58;98401.56;;;24.43;62.15
57574;BME280;43409;48.858;21.906;2022-09-09T06:57:24;98396.75;;;24.45;62.24
57574;BME280;43409;48.858;21.906;2022-09-09T06:59:49;98396.75;;;24.40;62.35
57574;BME280;43409;48.858;21.906;2022-09-09T07:02:15;98405.88;;;24.39;62.44
57574;BME280;43409;48.858;21.906;2022-09-09T07:04:41;98404.28;;;24.38;62.52
57574;BME280;43409;48.858;21.906;2022-09-09T07:07:06;98416.34;;;24.41;62.74
57574;BME280;43409;48.858;21.906;2022-09-09T07:09:33;98413.38;;;24.37;62.33
57574;BME280;43409;48.858;21.906;2022-09-09T07:11:58;98418.19;;;24.40;61.82
57574;BME280;43409;48.858;21.906;2022-09-09T07:14:24;98412.28;;;24.43;61.63
57574;BME280;43409;48.858;21.906;2022-09-09T07:16:50;98417.63;;;24.43;61.95
57574;BME280;43409;48.858;21.906;2022-09-09T07:19:16;98416.06;;;24.42;61.70
57574;BME280;43409;48.858;21.906;2022-09-09T07:21:42;98420.31;;;24.43;61.88
57574;BME280;43409;48.858;21.906;2022-09-09T07:24:08;98417.91;;;24.47;61.70
57574;BME280;43409;48.858;21.906;2022-09-09T07:26:36;98410.66;;;24.47;61.75
57574;BME280;43409;48.858;21.906;2022-09-09T07:29:02;98411.19;;;24.49;61.18
57574;BME280;43409;48.858;21.906;2022-09-09T07:31:31;98419.22;;;24.49;61.45
57574;BME280;43409;48.858;21.906;2022-09-09T07:33:58;98420.31;;;24.48;61.60
57574;BME280;43409;48.858;21.906;2022-09-09T07:36:33;98423.00;;;24.48;61.60
57574;BME280;43409;48.858;21.906;2022-09-09T07:39:07;98426.69;;;24.53;60.96
57574;BME280;43409;48.858;21.906;2022-09-09T07:41:33;98426.75;;;24.47;60.70
57574;BME280;43409;48.858;21.906;2022-09-09T07:44:03;98424.84;;;24.48;60.57
57574;BME280;43409;48.858;21.906;2022-09-09T07:46:29;98423.50;;;24.51;60.12
57574;BME280;43409;48.858;21.906;2022-09-09T07:48:55;98427.81;;;24.52;59.90
57574;BME280;43409;48.858;21.906;2022-09-09T07:51:27;98426.44;;;24.59;59.45
57574;BME280;43409;48.858;21.906;2022-09-09T07:53:56;98427.47;;;24.63;59.46
57574;BME280;43409;48.858;21.906;2022-09-09T07:56:23;98429.09;;;24.64;59.31
57574;BME280;43409;48.858;21.906;2022-09-09T07:58:50;98428.59;;;24.62;59.31
57574;BME280;43409;48.858;21.906;2022-09-09T08:03:55;98432.56;;;24.65;58.83
57574;BME280;43409;48.858;21.906;2022-09-09T08:06:20;98427.91;;;24.26;59.09
57574;BME280;43409;48.858;21.906;2022-09-09T08:08:49;98437.50;;;24.37;58.04
57574;BME280;43409;48.858;21.906;2022-09-09T08:11:15;98430.56;;;24.31;57.72
57574;BME280;43409;48.858;21.906;2022-09-09T08:13:42;98433.28;;;24.16;58.01
57574;BME280;43409;48.858;21.906;2022-09-09T08:16:12;98442.13;;;24.21;57.33
57574;BME280;43409;48.858;21.906;2022-09-09T08:18:38;98448.56;;;24.25;56.92
57574;BME280;43409;48.858;21.906;2022-09-09T08:21:13;98451.47;;;24.29;56.81
57574;BME280;43409;48.858;21.906;2022-09-09T08:23:43;98455.19;;;24.38;56.20
57574;BME280;43409;48.858;21.906;2022-09-09T08:28:36;98449.84;;;24.28;56.59
57574;BME280;43409;48.858;21.906;2022-09-09T08:31:32;98455.72;;;24.45;56.14
57574;BME280;43409;48.858;21.906;2022-09-09T08:33:59;98457.00;;;24.48;56.19
57574;BME280;43409;48.858;21.906;2022-09-09T08:36:27;98472.31;;;24.47;56.08
57574;BME280;43409;48.858;21.906;2022-09-09T08:38:55;98472.63;;;24.30;56.44
57574;BME280;43409;48.858;21.906;2022-09-09T08:54:47;98461.59;;;24.47;55.68
57574;BME280;43409;48.858;21.906;2022-09-09T08:57:20;98462.09;;;24.49;55.66
57574;BME280;43409;48.858;21.906;2022-09-09T08:59:47;98458.91;;;24.47;55.73
57574;BME280;43409;48.858;21.906;2022-09-09T09:02:31;98461.03;;;24.51;55.62
57574;BME280;43409;48.858;21.906;2022-09-09T09:05:18;98463.44;;;24.52;55.53
57574;BME280;43409;48.858;21.906;2022-09-09T09:13:17;98451.72;;;24.38;54.88
57574;BME280;43409;48.858;21.906;2022-09-09T09:15:47;98462.75;;;24.26;55.33
57574;BME280;43409;48.858;21.906;2022-09-09T09:18:16;98470.25;;;24.24;55.33
57574;BME280;43409;48.858;21.906;2022-09-09T09:23:21;98467.56;;;24.24;55.58
57574;BME280;43409;48.858;21.906;2022-09-09T09:25:47;98469.13;;;24.35;54.84
57574;BME280;43409;48.858;21.906;2022-09-09T09:28:26;98467.50;;;24.44;54.91
57574;BME280;43409;48.858;21.906;2022-09-09T09:30:57;98465.94;;;24.33;55.01
57574;BME280;43409;48.858;21.906;2022-09-09T09:36:07;98470.88;;;23.54;57.05
57574;BME280;43409;48.858;21.906;2022-09-09T09:38:34;98463.91;;;23.84;56.19
57574;BME280;43409;48.858;21.906;2022-09-09T09:41:00;98474.84;;;24.08;55.78
57574;BME280;43409;48.858;21.906;2022-09-09T09:43:32;98464.91;;;24.19;55.99
57574;BME280;43409;48.858;21.906;2022-09-09T09:45:58;98467.88;;;24.12;56.46
57574;BME280;43409;48.858;21.906;2022-09-09T09:48:25;98471.56;;;24.31;56.23
57574;BME280;43409;48.858;21.906;2022-09-09T09:53:22;98464.00;;;24.49;56.14
57574;BME280;43409;48.858;21.906;2022-09-09T09:56:12;98475.59;;;24.29;56.61
57574;BME280;43409;48.858;21.906;2022-09-09T10:01:24;98477.47;;;24.28;56.93
57574;BME280;43409;48.858;21.906;2022-09-09T10:03:55;98472.03;;;24.49;56.38
57574;BME280;43409;48.858;21.906;2022-09-09T10:06:33;98481.41;;;24.46;56.52
57574;BME280;43409;48.858;21.906;2022-09-09T10:08:58;98491.13;;;24.22;56.79
57574;BME280;43409;48.858;21.906;2022-09-09T10:22:47;98499.91;;;24.48;55.24
57574;BME280;43409;48.858;21.906;2022-09-09T10:41:19;98486.28;;;24.34;55.88
57574;BME280;43409;48.858;21.906;2022-09-09T10:47:12;98489.47;;;24.52;55.32
57574;BME280;43409;48.858;21.906;2022-09-09T10:55:30;98486.81;;;24.41;55.25
57574;BME280;43409;48.858;21.906;2022-09-09T10:57:59;98485.97;;;24.46;54.93
57574;BME280;43409;48.858;21.906;2022-09-09T11:00:40;98484.63;;;24.48;54.57
57574;BME280;43409;48.858;21.906;2022-09-09T11:03:21;98495.09;;;24.45;54.53
57574;BME280;43409;48.858;21.906;2022-09-09T11:06:17;98489.47;;;24.41;54.58
57574;BME280;43409;48.858;21.906;2022-09-09T11:08:44;98487.31;;;24.43;54.03
57574;BME280;43409;48.858;21.906;2022-09-09T11:11:20;98488.72;;;24.30;54.34
57574;BME280;43409;48.858;21.906;2022-09-09T11:19:03;98495.38;;;24.48;53.74
57574;BME280;43409;48.858;21.906;2022-09-09T11:21:38;98493.75;;;24.47;53.74
57574;BME280;43409;48.858;21.906;2022-09-09T11:24:13;98493.75;;;24.47;53.73
57574;BME280;43409;48.858;21.906;2022-09-09T11:26:45;98492.13;;;24.46;53.69
57574;BME280;43409;48.858;21.906;2022-09-09T11:34:50;98498.38;;;24.31;53.90
57574;BME280;43409;48.858;21.906;2022-09-09T11:37:34;98492.47;;;24.29;54.36
57574;BME280;43409;48.858;21.906;2022-09-09T11:40:23;98502.34;;;24.44;53.66
57574;BME280;43409;48.858;21.906;2022-09-09T11:42:49;98499.72;;;24.19;54.38
57574;BME280;43409;48.858;21.906;2022-09-09T11:45:27;98501.00;;;24.42;53.69
57574;BME280;43409;48.858;21.906;2022-09-09T11:47:59;98497.78;;;24.40;53.95
57574;BME280;43409;48.858;21.906;2022-09-09T11:52:51;98509.59;;;24.44;53.71
57574;BME280;43409;48.858;21.906;2022-09-09T11:55:32;98504.72;;;24.51;53.05
57574;BME280;43409;48.858;21.906;2022-09-09T11:58:02;98509.84;;;24.47;53.51
57574;BME280;43409;48.858;21.906;2022-09-09T12:00:39;98505.88;;;24.35;53.87
57574;BME280;43409;48.858;21.906;2022-09-09T12:06:09;98499.06;;;24.53;53.64
57574;BME280;43409;48.858;21.906;2022-09-09T12:08:37;98507.66;;;24.60;53.32
57574;BME280;43409;48.858;21.906;2022-09-09T12:11:06;98507.41;;;24.56;53.53
57574;BME280;43409;48.858;21.906;2022-09-09T12:13:32;98514.66;;;24.61;53.66
57574;BME280;43409;48.858;21.906;2022-09-09T12:15:58;98516.78;;;24.64;53.60
57574;BME280;43409;48.858;21.906;2022-09-09T12:18:40;98519.19;;;24.60;53.56
57574;BME280;43409;48.858;21.906;2022-09-09T12:23:52;98508.19;;;24.62;53.42
57574;BME280;43409;48.858;21.906;2022-09-09T12:31:37;98501.78;;;24.58;53.73
57574;BME280;43409;48.858;21.906;2022-09-09T12:37:34;98494.75;;;24.72;53.45
57574;BME280;43409;48.858;21.906;2022-09-09T12:40:22;98487.22;;;24.74;53.49
57574;BME280;43409;48.858;21.906;2022-09-09T12:42:48;98477.59;;;24.73;53.97
57574;BME280;43409;48.858;21.906;2022-09-09T12:47:47;98479.44;;;24.73;54.18
57574;BME280;43409;48.858;21.906;2022-09-09T12:50:27;98473.81;;;24.74;54.45
57574;BME280;43409;48.858;21.906;2022-09-09T12:52:57;98478.16;;;24.70;54.57
57574;BME280;43409;48.858;21.906;2022-09-09T12:55:28;98478.09;;;24.75;54.44
57574;BME280;43409;48.858;21.906;2022-09-09T12:57:56;98477.59;;;24.73;54.20
57574;BME280;43409;48.858;21.906;2022-09-09T13:00:24;98466.88;;;24.68;54.15
57574;BME280;43409;48.858;21.906;2022-09-09T13:02:55;98467.69;;;24.69;54.31
57574;BME280;43409;48.858;21.906;2022-09-09T13:05:24;98464.69;;;24.75;54.11
57574;BME280;43409;48.858;21.906;2022-09-09T13:07:50;98464.66;;;24.80;54.55
57574;BME280;43409;48.858;21.906;2022-09-09T13:10:22;98475.38;;;24.80;54.44
57574;BME280;43409;48.858;21.906;2022-09-09T13:12:49;98457.16;;;24.77;54.48
57574;BME280;43409;48.858;21.906;2022-09-09T13:15:26;98463.06;;;24.79;54.47
57574;BME280;43409;48.858;21.906;2022-09-09T13:17:56;98446.72;;;24.76;54.41
57574;BME280;43409;48.858;21.906;2022-09-09T13:20:23;98464.44;;;24.77;54.64
57574;BME280;43409;48.858;21.906;2022-09-09T13:22:49;98459.34;;;24.75;54.39
57574;BME280;43409;48.858;21.906;2022-09-09T13:25:24;98453.72;;;24.72;54.22
57574;BME280;43409;48.858;21.906;2022-09-09T13:28:04;98444.88;;;24.71;54.37
57574;BME280;43409;48.858;21.906;2022-09-09T13:30:37;98442.19;;;24.71;54.54
57574;BME280;43409;48.858;21.906;2022-09-09T13:35:35;98432.56;;;24.70;54.43
57574;BME280;43409;48.858;21.906;2022-09-09T13:38:08;98426.38;;;24.70;54.67
57574;BME280;43409;48.858;21.906;2022-09-09T13:40:35;98424.53;;;24.70;54.51
57574;BME280;43409;48.858;21.906;2022-09-09T13:43:02;98421.28;;;24.73;54.60
57574;BME280;43409;48.858;21.906;2022-09-09T13:45:28;98427.44;;;24.74;54.49
57574;BME280;43409;48.858;21.906;2022-09-09T13:47:55;98422.88;;;24.74;54.53
57574;BME280;43409;48.858;21.906;2022-09-09T13:50:30;98423.97;;;24.73;54.53
57574;BME280;43409;48.858;21.906;2022-09-09T13:52:58;98426.66;;;24.73;54.49
57574;BME280;43409;48.858;21.906;2022-09-09T13:55:28;98419.66;;;24.72;54.41
57574;BME280;43409;48.858;21.906;2022-09-09T13:57:58;98411.34;;;24.74;54.46
57574;BME280;43409;48.858;21.906;2022-09-09T14:00:26;98412.13;;;24.74;54.45
57574;BME280;43409;48.858;21.906;2022-09-09T14:02:53;98421.28;;;24.73;54.53
57574;BME280;43409;48.858;21.906;2022-09-09T14:05:21;98411.91;;;24.71;54.60
57574;BME280;43409;48.858;21.906;2022-09-09T14:07:48;98411.63;;;24.72;54.54
57574;BME280;43409;48.858;21.906;2022-09-09T14:10:14;98415.91;;;24.73;54.21
57574;BME280;43409;48.858;21.906;2022-09-09T14:12:39;98405.47;;;24.72;54.74
57574;BME280;43409;48.858;21.906;2022-09-09T14:15:06;98407.88;;;24.68;54.37
57574;BME280;43409;48.858;21.906;2022-09-09T14:17:32;98414.34;;;24.67;54.65
57574;BME280;43409;48.858;21.906;2022-09-09T14:19:58;98412.47;;;24.67;54.62
57574;BME280;43409;48.858;21.906;2022-09-09T14:22:24;98402.00;;;24.66;54.44
57574;BME280;43409;48.858;21.906;2022-09-09T14:24:50;98394.53;;;24.63;54.46
57574;BME280;43409;48.858;21.906;2022-09-09T14:27:17;98391.28;;;24.66;54.50
57574;BME280;43409;48.858;21.906;2022-09-09T14:29:44;98389.69;;;24.65;54.60
57574;BME280;43409;48.858;21.906;2022-09-09T14:32:10;98389.94;;;24.63;54.39
57574;BME280;43409;48.858;21.906;2022-09-09T14:34:36;98400.41;;;24.65;54.35
57574;BME280;43409;48.858;21.906;2022-09-09T14:37:01;98390.78;;;24.64;54.38
57574;BME280;43409;48.858;21.906;2022-09-09T14:39:27;98386.19;;;24.64;54.28
57574;BME280;43409;48.858;21.906;2022-09-09T14:41:52;98382.19;;;24.62;54.20
57574;BME280;43409;48.858;21.906;2022-09-09T14:44:18;98374.13;;;24.62;54.16
57574;BME280;43409;48.858;21.906;2022-09-09T14:46:44;98378.19;;;24.59;54.23
57574;BME280;43409;48.858;21.906;2022-09-09T14:49:09;98380.06;;;24.59;54.11
57574;BME280;43409;48.858;21.906;2022-09-09T14:51:38;98389.72;;;24.60;54.17
57574;BME280;43409;48.858;21.906;2022-09-09T14:54:04;98372.00;;;24.59;53.94
57574;BME280;43409;48.858;21.906;2022-09-09T14:56:31;98368.78;;;24.57;53.92
57574;BME280;43409;48.858;21.906;2022-09-09T14:58:59;98369.84;;;24.56;53.99
57574;BME280;43409;48.858;21.906;2022-09-09T15:01:26;98383.03;;;24.57;54.01
57574;BME280;43409;48.858;21.906;2022-09-09T15:04:00;98384.09;;;24.56;53.99
57574;BME280;43409;48.858;21.906;2022-09-09T15:06:28;98373.09;;;24.53;53.90
57574;BME280;43409;48.858;21.906;2022-09-09T15:08:54;98380.06;;;24.54;53.86
57574;BME280;43409;48.858;21.906;2022-09-09T15:11:23;98377.91;;;24.56;53.88
57574;BME280;43409;48.858;21.906;2022-09-09T15:13:51;98370.13;;;24.54;53.93
57574;BME280;43409;48.858;21.906;2022-09-09T15:16:21;98372.03;;;24.54;53.89
57574;BME280;43409;48.858;21.906;2022-09-09T15:18:50;98379.00;;;24.55;53.76
57574;BME280;43409;48.858;21.906;2022-09-09T15:21:18;98374.72;;;24.54;54.01
57574;BME280;43409;48.858;21.906;2022-09-09T15:23:44;98380.84;;;24.54;53.84
57574;BME280;43409;48.858;21.906;2022-09-09T15:26:10;98377.44;;;24.48;53.83
57574;BME280;43409;48.858;21.906;2022-09-09T15:28:37;98387.84;;;24.55;54.05
57574;BME280;43409;48.858;21.906;2022-09-09T15:31:12;98393.47;;;24.54;53.65